CheckWX is a tool to help pilots better visualize weather data.  It is not intended as a substitute for an official pre-flight weather briefing.

12:23:54 UTC

KFOZ METAR
Bigfork Municipal Airport
Bigfork, Minnesota, USA
Current

10 mins ago

KFOZ 221214Z AUTO 00000KT 5SM OVC038 M10/M12 A3031 RMK AO2
Observed
Feb-22 @ 12:14 UTC
Visibility
5 SM
Flight Rules
MVFR
Cloud Levels
  • Overcast at 3,800' AGL
Temperature
-10°C / 14°F
Dewpoint
-12°C / 10°F
Humidity
85%
Altimeter
30.31" Hg
Pressure
1026.42 hPa
Previous

31 mins ago

KFOZ 221153Z AUTO 00000KT 10SM OVC038 M10/M12 A3032 RMK AO2
Observed
Feb-22 @ 11:53 UTC
Visibility
10 SM
Flight Rules
VFR
Cloud Levels
  • Overcast at 3,800' AGL
Temperature
-10°C / 14°F
Dewpoint
-12°C / 10°F
Humidity
85%
Altimeter
30.32" Hg
Pressure
1026.72 hPa
Previous

50 mins ago

KFOZ 221134Z AUTO 23003KT 10SM OVC038 M09/M12 A3032 RMK AO2
Observed
Feb-22 @ 11:34 UTC
Wind
  • 230° at 3 KTS
Visibility
10 SM
Flight Rules
VFR
Cloud Levels
  • Overcast at 3,800' AGL
Temperature
-9°C / 16°F
Dewpoint
-12°C / 10°F
Humidity
79%
Altimeter
30.32" Hg
Pressure
1026.72 hPa